Time;durP1;ratioP1;P1;durP2;ratioP2;P2;SDS_P1;SDS_P2;PMS_P1;PMS_P2;Temp;Humidity;BMP_temperature;BMP_pressure;BME280_temperature;BME280_humidity;BME280_pressure;Samples;Min_cycle;Max_cycle;Signal;HPM_P1;HPM_P2
2023/10/11 00:00:33;;;;;;;8.40;5.10;;;;;;;-143.21;69.55;72770.28;5094623;28;20203;-83
2023/10/11 00:03:06;;;;;;;14.43;5.50;;;;;;;-143.21;70.07;72782.16;5091749;28;20208;-83
2023/10/11 00:05:40;;;;;;;11.20;5.50;;;;;;;-143.21;70.20;72788.13;5090575;28;20203;-82
2023/10/11 00:08:09;;;;;;;10.60;5.50;;;;;;;-143.21;70.21;72788.13;5091764;28;20250;-83
2023/10/11 00:10:42;;;;;;;11.33;5.47;;;;;;;-143.21;70.24;72792.09;5094004;28;20667;-83
2023/10/11 00:13:11;;;;;;;6.67;5.30;;;;;;;-143.21;70.29;72796.06;5092064;28;20279;-83
2023/10/11 00:15:38;;;;;;;9.60;5.73;;;;;;;-143.21;70.39;72796.06;5093549;28;20581;-83
2023/10/11 00:18:05;;;;;;;9.67;5.43;;;;;;;-143.21;70.46;72805.97;5093371;28;20220;-83
2023/10/11 00:20:47;;;;;;;9.40;5.57;;;;;;;-143.21;70.50;72805.97;5092681;28;20207;-81
2023/10/11 00:23:16;;;;;;;14.53;5.93;;;;;;;-143.21;70.32;72804.00;5094666;28;20291;-82
2023/10/11 00:25:44;;;;;;;10.50;6.03;;;;;;;-143.21;70.39;72813.91;5096374;28;20289;-81
2023/10/11 00:28:14;;;;;;;13.90;5.97;;;;;;;-143.21;70.49;72809.94;5094913;28;20212;-82
2023/10/11 00:30:46;;;;;;;17.67;6.10;;;;;;;-143.21;70.76;72817.88;5095330;28;20592;-82
2023/10/11 00:33:13;;;;;;;10.77;5.77;;;;;;;-143.21;70.63;72813.91;5102834;28;20205;-80
2023/10/11 00:35:47;;;;;;;9.87;6.00;;;;;;;-143.21;70.86;72813.91;5099020;28;20215;-82
2023/10/11 00:38:18;;;;;;;10.87;6.03;;;;;;;-143.21;70.70;72815.88;5097923;28;20238;-81
2023/10/11 00:41:00;;;;;;;8.83;5.90;;;;;;;-143.21;70.92;72817.88;5097826;28;20264;-81
2023/10/11 00:43:37;;;;;;;11.00;6.63;;;;;;;-143.21;71.20;72831.75;5096556;28;20651;-80
2023/10/11 00:46:08;;;;;;;10.93;6.17;;;;;;;-143.21;71.07;72831.75;5091546;28;20196;-82
2023/10/11 00:48:36;;;;;;;11.53;6.50;;;;;;;-143.21;70.97;72833.75;5095921;28;20599;-81
2023/10/11 00:51:07;;;;;;;11.73;6.20;;;;;;;-143.21;70.63;72839.69;5094097;28;20655;-82
2023/10/11 00:53:35;;;;;;;12.13;6.87;;;;;;;-143.21;70.97;72847.63;5095147;28;20197;-80
2023/10/11 00:56:05;;;;;;;13.07;7.67;;;;;;;-143.21;71.68;72869.44;5093849;28;20232;-80
2023/10/11 00:58:32;;;;;;;15.50;7.20;;;;;;;-143.21;72.11;72871.44;5090216;28;20220;-81
2023/10/11 01:01:01;;;;;;;17.13;7.67;;;;;;;-143.21;72.13;72871.44;5093696;28;20226;-80
2023/10/11 01:03:31;;;;;;;12.57;7.80;;;;;;;-143.21;72.34;72875.41;5093261;28;20235;-80
2023/10/11 01:05:59;;;;;;;16.53;7.30;;;;;;;-143.21;72.57;72879.38;5093082;28;20228;-79
2023/10/11 01:08:30;;;;;;;10.90;7.10;;;;;;;-143.21;72.60;72891.25;5093044;28;20250;-81
2023/10/11 01:10:57;;;;;;;12.70;7.33;;;;;;;-143.21;72.75;72887.28;5093416;28;20590;-80
2023/10/11 01:13:24;;;;;;;15.20;6.83;;;;;;;-143.21;72.67;72895.22;5093005;28;20235;-80
2023/10/11 01:15:51;;;;;;;12.47;7.00;;;;;;;-143.21;72.23;72891.25;5092785;28;20677;-80
2023/10/11 01:18:19;;;;;;;11.57;7.23;;;;;;;-143.21;72.11;72893.25;5093344;28;20228;-80
2023/10/11 01:20:47;;;;;;;14.63;6.73;;;;;;;-143.21;72.37;72903.16;5093130;28;20204;-81
2023/10/11 01:23:15;;;;;;;11.07;6.67;;;;;;;-143.21;72.17;72905.16;5092515;28;20777;-80
2023/10/11 01:25:41;;;;;;;14.00;7.00;;;;;;;-143.21;72.27;72903.16;5092763;28;20204;-80
2023/10/11 01:28:08;;;;;;;17.27;6.97;;;;;;;-143.21;72.18;72905.16;5092971;28;20189;-80
2023/10/11 01:30:35;;;;;;;14.37;6.93;;;;;;;-143.21;72.57;72913.09;5092344;28;20274;-80
2023/10/11 01:33:02;;;;;;;10.30;6.47;;;;;;;-143.21;73.34;72921.00;5088901;28;20208;-81
2023/10/11 01:35:36;;;;;;;13.57;7.20;;;;;;;-143.21;73.80;72924.97;5089763;28;20204;-81
2023/10/11 01:38:06;;;;;;;12.57;6.77;;;;;;;-143.21;73.46;72924.97;5084710;28;20209;-81
2023/10/11 01:40:33;;;;;;;12.43;6.37;;;;;;;-143.21;73.34;72921.00;5089685;28;20201;-81
2023/10/11 01:43:00;;;;;;;9.90;6.30;;;;;;;-143.21;73.30;72924.97;5093322;28;20270;-80
2023/10/11 01:45:27;;;;;;;11.00;6.63;;;;;;;-143.21;73.59;72928.94;5092749;28;20628;-80
2023/10/11 01:47:56;;;;;;;12.70;6.37;;;;;;;-143.21;73.94;72938.88;5091223;28;20240;-78
2023/10/11 01:50:24;;;;;;;10.63;6.13;;;;;;;-143.21;73.96;72942.84;5091358;28;20265;-78
2023/10/11 01:52:51;;;;;;;12.50;6.30;;;;;;;-143.21;73.98;72938.88;5091086;28;20214;-79
2023/10/11 01:55:20;;;;;;;9.73;6.20;;;;;;;-143.21;74.33;72934.91;5090628;28;20725;-79
2023/10/11 01:57:49;;;;;;;12.70;7.00;;;;;;;-143.21;74.83;72940.84;5090536;28;20201;-81
2023/10/11 02:00:17;;;;;;;9.93;6.57;;;;;;;-143.21;74.84;72946.81;5090980;28;20208;-81
2023/10/11 02:02:47;;;;;;;15.27;6.43;;;;;;;-143.21;74.85;72938.88;5090324;28;20223;-81
2023/10/11 02:05:14;;;;;;;10.53;5.97;;;;;;;-143.21;74.99;72934.91;5090622;28;20197;-81
2023/10/11 02:07:41;;;;;;;9.93;6.30;;;;;;;-143.21;74.91;72932.91;5090920;28;20220;-81
2023/10/11 02:10:12;;;;;;;11.17;6.37;;;;;;;-143.21;74.73;72928.94;5091186;28;20193;-81
2023/10/11 02:12:44;;;;;;;13.83;6.10;;;;;;;-143.21;74.75;72928.94;5091529;28;20254;-82
2023/10/11 02:15:21;;;;;;;12.37;6.57;;;;;;;-143.21;74.67;72924.97;5091056;28;20682;-82
2023/10/11 02:17:51;;;;;;;9.63;6.10;;;;;;;-143.21;74.32;72915.06;5091172;28;20246;-81
2023/10/11 02:20:22;;;;;;;10.80;6.00;;;;;;;-143.21;74.10;72911.09;5091387;28;20261;-81
2023/10/11 02:22:51;;;;;;;10.47;6.13;;;;;;;-143.21;74.00;72917.06;5090798;28;20578;-82
2023/10/11 02:25:19;;;;;;;9.20;5.77;;;;;;;-143.21;74.16;72915.06;5091336;28;20200;-82
2023/10/11 02:27:50;;;;;;;8.87;5.83;;;;;;;-143.21;73.92;72915.06;5090542;28;20208;-82
2023/10/11 02:30:21;;;;;;;10.70;5.90;;;;;;;-143.21;73.78;72919.03;5091010;28;20243;-82
2023/10/11 02:32:49;;;;;;;9.33;6.10;;;;;;;-143.21;73.72;72924.97;5090988;28;20203;-82
2023/10/11 02:35:18;;;;;;;10.53;6.37;;;;;;;-143.21;73.90;72932.91;5090984;28;20208;-82
2023/10/11 02:37:46;;;;;;;13.57;6.70;;;;;;;-143.21;73.83;72926.97;5090201;28;20715;-82
2023/10/11 02:40:22;;;;;;;10.63;6.07;;;;;;;-143.21;73.58;72934.91;5090749;28;20258;-81
2023/10/11 02:42:55;;;;;;;10.60;6.27;;;;;;;-143.21;73.36;72942.84;5090753;28;20587;-83
2023/10/11 02:45:22;;;;;;;14.57;6.50;;;;;;;-143.21;73.21;72940.84;5091128;28;20205;-82
2023/10/11 02:47:53;;;;;;;11.20;6.63;;;;;;;-143.21;73.30;72950.78;5090666;28;20659;-82
2023/10/11 02:50:22;;;;;;;13.87;6.40;;;;;;;-143.21;73.29;72952.75;5090491;28;20208;-82
2023/10/11 02:52:58;;;;;;;11.17;6.20;;;;;;;-143.21;73.54;72962.66;5090113;28;20675;-81
2023/10/11 02:55:27;;;;;;;15.13;6.47;;;;;;;-143.21;73.42;72962.66;5090271;28;20231;-81
2023/10/11 02:58:06;;;;;;;11.10;6.47;;;;;;;-143.21;73.47;72970.59;5090190;28;20214;-80
2023/10/11 03:00:33;;;;;;;11.07;6.60;;;;;;;-143.21;73.61;72972.59;5091076;28;20226;-82
2023/10/11 03:03:00;;;;;;;13.37;6.67;;;;;;;-143.21;73.33;72982.50;5090662;28;20209;-82
2023/10/11 03:05:28;;;;;;;10.43;6.43;;;;;;;-143.21;73.04;72978.53;5090251;28;20780;-82
2023/10/11 03:08:13;;;;;;;12.67;7.10;;;;;;;-143.21;72.96;72982.50;5090513;28;20204;-82
2023/10/11 03:10:44;;;;;;;12.37;6.77;;;;;;;-143.21;73.35;72998.38;5090906;28;20628;-82
2023/10/11 03:13:19;;;;;;;15.80;6.87;;;;;;;-143.21;73.20;72998.38;5090402;28;20652;-82
2023/10/11 03:15:47;;;;;;;16.90;6.53;;;;;;;-143.21;73.62;73006.31;5089823;28;20555;-82
2023/10/11 03:18:14;;;;;;;15.50;6.47;;;;;;;-143.21;73.90;73014.25;5090163;28;20345;-82
2023/10/11 03:20:41;;;;;;;14.27;6.20;;;;;;;-143.21;74.04;73022.19;5090083;28;20644;-82
2023/10/11 03:23:11;;;;;;;10.70;6.50;;;;;;;-143.21;73.88;73020.19;5090087;28;20207;-83
2023/10/11 03:25:44;;;;;;;11.93;6.30;;;;;;;-143.21;73.92;73026.16;5090351;28;20636;-82
2023/10/11 03:28:15;;;;;;;15.80;7.23;;;;;;;-143.21;74.01;73032.09;5090385;28;20598;-83
2023/10/11 03:30:42;;;;;;;11.23;6.87;;;;;;;-143.21;73.33;73024.16;5090189;28;20196;-83
2023/10/11 03:33:10;;;;;;;11.50;6.83;;;;;;;-143.21;73.39;73028.13;5090030;28;20370;-80
2023/10/11 03:35:38;;;;;;;18.10;7.47;;;;;;;-143.21;73.52;73042.00;5088462;28;20273;-80
2023/10/11 03:38:16;;;;;;;14.30;8.03;;;;;;;-143.21;73.13;73045.97;5089209;28;20201;-80
2023/10/11 03:40:54;;;;;;;12.80;7.83;;;;;;;-143.21;73.25;73061.84;5090221;28;20181;-82
2023/10/11 03:43:23;;;;;;;14.70;7.73;;;;;;;-143.21;73.86;73083.66;5090213;28;20204;-81
2023/10/11 03:45:50;;;;;;;16.03;7.97;;;;;;;-143.21;74.96;73133.25;5089569;28;20246;-80
2023/10/11 03:48:18;;;;;;;15.30;7.67;;;;;;;-143.21;75.82;73145.16;5090215;28;20209;-80
2023/10/11 03:50:48;;;;;;;15.20;7.63;;;;;;;-143.21;76.22;73135.25;5089890;28;20208;-80
2023/10/11 03:53:16;;;;;;;16.13;7.10;;;;;;;-143.21;75.75;73121.34;5089734;28;20218;-80
2023/10/11 03:55:47;;;;;;;12.50;7.90;;;;;;;-143.21;75.85;73123.34;5089435;28;20211;-80
2023/10/11 03:58:29;;;;;;;13.73;7.43;;;;;;;-143.21;75.98;73141.19;5090271;28;20211;-81
2023/10/11 04:01:04;;;;;;;11.33;7.23;;;;;;;-143.21;76.35;73131.28;5089879;28;20236;-81
2023/10/11 04:03:31;;;;;;;13.90;6.97;;;;;;;-143.21;76.33;73135.25;5086623;28;20781;-81
2023/10/11 04:05:59;;;;;;;9.87;6.60;;;;;;;-143.21;76.31;73135.25;5089463;28;20239;-82
2023/10/11 04:08:26;;;;;;;11.83;6.63;;;;;;;-143.21;76.22;73133.25;5089845;28;20261;-81
2023/10/11 04:10:54;;;;;;;15.97;6.60;;;;;;;-143.21;76.24;73133.25;5089678;28;20292;-81
2023/10/11 04:13:25;;;;;;;12.63;7.20;;;;;;;-143.21;76.13;73125.31;5089531;28;20212;-81
2023/10/11 04:15:55;;;;;;;11.63;7.13;;;;;;;-143.21;75.85;73119.38;5088890;28;20272;-81
2023/10/11 04:18:33;;;;;;;12.03;7.40;;;;;;;-143.21;75.45;73119.38;5089448;28;20219;-81
2023/10/11 04:21:15;;;;;;;12.83;8.03;;;;;;;-143.21;75.21;73125.31;5090336;28;20277;-81
2023/10/11 04:23:45;;;;;;;14.23;8.63;;;;;;;-143.21;75.86;73133.25;5087590;28;20228;-81
2023/10/11 04:26:26;;;;;;;15.47;8.43;;;;;;;-143.21;75.93;73145.16;5089697;28;20572;-81
2023/10/11 04:28:53;;;;;;;18.73;9.50;;;;;;;-143.21;76.09;73149.13;5092640;28;20201;-80
2023/10/11 04:31:28;;;;;;;19.03;10.07;;;;;;;-143.21;76.31;73151.09;5093117;28;21650;-80
2023/10/11 04:33:59;;;;;;;16.57;10.07;;;;;;;-143.21;76.64;73166.97;5092681;28;20210;-80
2023/10/11 04:36:28;;;;;;;19.67;10.50;;;;;;;-143.21;76.72;73165.00;5093553;28;20296;-82
2023/10/11 04:39:03;;;;;;;13.87;8.90;;;;;;;-143.21;77.36;73165.00;5092591;28;20215;-78
2023/10/11 04:41:37;;;;;;;15.17;8.17;;;;;;;-143.21;77.51;73163.00;5088343;28;20208;-79
2023/10/11 04:44:13;;;;;;;17.13;8.77;;;;;;;-143.21;77.22;73165.00;5088224;28;20196;-77
2023/10/11 04:46:44;;;;;;;15.23;8.80;;;;;;;-143.21;77.07;73151.09;5090920;28;20231;-79
2023/10/11 04:49:19;;;;;;;17.70;7.43;;;;;;;-143.21;76.67;73147.13;5091305;28;20292;-79
2023/10/11 04:51:47;;;;;;;11.83;7.57;;;;;;;-143.21;76.64;73141.19;5090704;28;20200;-79
2023/10/11 04:54:17;;;;;;;16.70;7.60;;;;;;;-143.21;76.30;73137.22;5090855;28;20580;-78
2023/10/11 04:56:55;;;;;;;26.03;8.20;;;;;;;-143.21;76.11;73123.34;5090793;28;20243;-79
2023/10/11 04:59:36;;;;;;;13.07;7.80;;;;;;;-143.21;75.78;73115.41;5091048;28;20228;-79
2023/10/11 05:02:09;;;;;;;18.80;8.17;;;;;;;-143.21;75.46;73111.44;5091193;28;20581;-78
2023/10/11 05:04:44;;;;;;;13.50;7.80;;;;;;;-143.21;75.32;73103.50;5090722;28;20248;-81
2023/10/11 05:07:12;;;;;;;14.70;8.03;;;;;;;-143.21;74.95;73095.56;5088030;28;20232;-81
2023/10/11 05:09:44;;;;;;;13.60;7.80;;;;;;;-143.21;74.71;73097.56;5090046;28;20230;-81
2023/10/11 05:12:19;;;;;;;15.53;8.20;;;;;;;-143.21;74.67;73093.59;5091387;28;20251;-81
2023/10/11 05:15:00;;;;;;;20.20;8.07;;;;;;;-143.21;74.47;73093.59;5091754;28;20639;-81
2023/10/11 05:17:48;;;;;;;12.80;8.30;;;;;;;-143.21;74.21;73091.59;5090793;28;20670;-81
2023/10/11 05:20:45;;;;;;;14.80;8.93;;;;;;;-143.21;74.04;73079.69;5090369;28;20342;-82
2023/10/11 05:23:13;;;;;;;14.13;8.27;;;;;;;-143.21;73.75;73067.78;5091475;28;20203;-80
2023/10/11 05:25:57;;;;;;;17.40;7.80;;;;;;;-143.21;73.26;73061.84;5090998;28;20212;-80
2023/10/11 05:28:30;;;;;;;13.53;8.20;;;;;;;-143.21;73.04;73067.78;5092055;28;20204;-82
2023/10/11 05:31:19;;;;;;;16.93;8.03;;;;;;;-143.21;72.79;73067.78;5091763;28;20254;-82
2023/10/11 05:33:59;;;;;;;17.50;7.83;;;;;;;-143.21;72.76;73077.72;5090267;28;20196;-83
2023/10/11 05:53:00;;;;;;;18.63;8.80;;;;;;;-143.21;74.11;73079.69;5091133;28;20207;-82
2023/10/11 05:55:28;;;;;;;15.47;9.30;;;;;;;-143.21;74.22;73073.75;5091146;28;20300;-83
2023/10/11 05:57:55;;;;;;;19.63;10.53;;;;;;;-143.21;73.98;73071.75;5091164;28;20763;-82
2023/10/11 06:00:26;;;;;;;27.23;10.60;;;;;;;-143.21;73.88;73063.84;5091489;28;20235;-82
2023/10/11 06:02:53;;;;;;;30.20;11.67;;;;;;;-143.21;73.75;73069.78;5091545;28;20208;-83
2023/10/11 06:05:23;;;;;;;27.00;11.50;;;;;;;-143.21;73.78;73055.91;5091060;28;20201;-83
2023/10/11 06:08:00;;;;;;;25.97;12.03;;;;;;;-143.21;73.70;73057.88;5090867;28;20628;-83
2023/10/11 06:10:41;;;;;;;28.10;11.43;;;;;;;-143.21;72.80;73040.03;5091573;28;20203;-83
2023/10/11 06:13:13;;;;;;;20.57;10.00;;;;;;;-143.21;72.71;73047.97;5087941;28;20275;-83
2023/10/11 06:15:58;;;;;;;24.53;9.80;;;;;;;-143.21;72.54;73047.97;5090670;28;20235;-80
2023/10/11 06:18:55;;;;;;;25.10;9.63;;;;;;;-143.21;72.34;73051.94;5090183;28;20292;-81
2023/10/11 06:21:33;;;;;;;23.33;9.77;;;;;;;-143.21;72.05;73049.94;5090484;28;20228;-81
2023/10/11 06:24:00;;;;;;;16.60;9.07;;;;;;;-143.21;71.84;73063.84;5090110;28;20196;-79
2023/10/11 06:29:15;;;;;;;19.27;8.90;;;;;;;-143.21;72.41;73127.31;5068239;28;20201;-81
2023/10/11 06:31:43;;;;;;;15.97;8.80;;;;;;;-143.21;72.81;73129.28;5090170;28;20197;-81
2023/10/11 06:34:17;;;;;;;18.47;9.20;;;;;;;-143.21;73.19;73137.22;5087115;28;20200;-81
2023/10/11 06:36:48;;;;;;;16.93;8.60;;;;;;;-143.21;73.23;73145.16;5089604;28;20281;-80
2023/10/11 06:39:33;;;;;;;14.53;7.40;;;;;;;-143.21;73.22;73153.09;5088751;28;20250;-82
2023/10/11 06:42:06;;;;;;;16.77;8.53;;;;;;;-143.21;72.75;73145.16;5088978;28;20211;-80
2023/10/11 06:44:34;;;;;;;18.43;8.00;;;;;;;-143.21;72.23;73129.28;5085882;28;20288;-80
2023/10/11 06:47:03;;;;;;;14.43;7.90;;;;;;;-143.21;71.78;73115.41;5086304;28;20261;-80
2023/10/11 06:49:40;;;;;;;19.77;7.93;;;;;;;-143.21;71.60;73099.53;5085987;28;20192;-80
2023/10/11 06:52:08;;;;;;;12.87;7.40;;;;;;;-143.21;70.22;73081.69;5089394;28;20261;-80
2023/10/11 06:54:35;;;;;;;16.10;7.90;;;;;;;-143.21;69.89;73067.78;5089359;28;20674;-78
2023/10/11 06:57:07;;;;;;;20.40;7.93;;;;;;;-143.21;69.50;73061.84;5087274;28;20201;-83
2023/10/11 06:59:34;;;;;;;16.90;7.40;;;;;;;-143.21;69.42;73059.88;5087345;28;20235;-83
2023/10/11 07:02:02;;;;;;;14.23;7.53;;;;;;;-143.21;69.21;73057.88;5088715;28;20193;-82
2023/10/11 07:04:36;;;;;;;16.83;7.57;;;;;;;-143.21;68.63;73038.03;5087693;28;20196;-83
2023/10/11 07:07:07;;;;;;;17.50;7.73;;;;;;;-143.21;68.45;73049.94;5087010;28;20248;-83
2023/10/11 07:09:39;;;;;;;18.73;8.83;;;;;;;-143.21;68.82;73042.00;5089667;28;20209;-82
2023/10/11 07:12:28;;;;;;;18.40;8.70;;;;;;;-143.21;68.31;73022.19;5087100;28;20201;-82
2023/10/11 07:14:57;;;;;;;16.40;8.13;;;;;;;-143.21;68.16;73020.19;5089718;28;20240;-84
2023/10/11 07:17:25;;;;;;;16.93;7.00;;;;;;;-143.21;67.95;72992.41;5089858;28;20239;-83
2023/10/11 07:19:52;;;;;;;12.17;6.33;;;;;;;-143.21;67.66;72970.59;5089597;28;20236;-82
2023/10/11 07:22:19;;;;;;;11.43;5.40;;;;;;;-143.21;67.06;72968.63;5090052;28;20195;-82
2023/10/11 07:24:55;;;;;;;14.50;7.10;;;;;;;-143.21;66.11;72948.78;5090546;28;20213;-84
2023/10/11 07:30:17;;;;;;;14.93;6.40;;;;;;;-143.21;64.96;72932.91;5087065;27;21118;-84
2023/10/11 07:32:44;;;;;;;13.93;6.10;;;;;;;-143.21;64.90;72924.97;5087517;28;20212;-83
2023/10/11 07:35:27;;;;;;;16.20;6.30;;;;;;;-143.21;65.05;72915.06;5087158;28;20223;-83
2023/10/11 07:37:56;;;;;;;11.37;5.40;;;;;;;-143.21;64.37;72915.06;5086953;28;20758;-83
2023/10/11 07:40:33;;;;;;;12.97;5.43;;;;;;;-143.21;64.53;72901.19;5087187;28;20266;-82
2023/10/11 07:43:00;;;;;;;13.07;5.40;;;;;;;-143.21;64.12;72893.25;5087163;28;20687;-83
2023/10/11 07:45:29;;;;;;;10.17;5.83;;;;;;;-143.21;63.96;72889.28;5086510;28;20203;-84
2023/10/11 07:47:57;;;;;;;20.90;6.33;;;;;;;-143.21;63.74;72887.28;5086770;28;20204;-83
2023/10/11 07:50:24;;;;;;;10.40;6.13;;;;;;;-143.21;63.45;72863.50;5086225;28;20281;-80
2023/10/11 07:52:52;;;;;;;12.43;6.70;;;;;;;-143.21;62.91;72857.53;5086048;28;20306;-78
2023/10/11 07:55:19;;;;;;;10.90;6.10;;;;;;;-143.21;62.91;72851.59;5085708;28;20239;-79
2023/10/11 07:57:46;;;;;;;12.10;6.13;;;;;;;-143.21;62.36;72851.59;5086259;28;20196;-81
2023/10/11 08:00:17;;;;;;;10.60;6.50;;;;;;;-143.21;61.87;72847.63;5087027;28;20291;-80
2023/10/11 08:02:56;;;;;;;14.57;7.10;;;;;;;-143.21;62.01;72843.66;5085499;28;20201;-80
2023/10/11 08:05:25;;;;;;;10.37;5.60;;;;;;;-143.21;61.40;72823.81;5085420;28;20223;-80
2023/10/11 08:07:52;;;;;;;15.63;6.43;;;;;;;-143.21;60.84;72813.91;5085598;28;20262;-81
2023/10/11 08:10:30;;;;;;;12.80;6.03;;;;;;;-143.21;60.10;72815.88;5085119;28;20235;-80
2023/10/11 08:12:57;;;;;;;11.70;5.97;;;;;;;-143.21;60.32;72796.06;5084994;28;20205;-81
2023/10/11 08:15:28;;;;;;;11.87;6.13;;;;;;;-143.21;59.80;72774.25;5084980;28;20299;-81
2023/10/11 08:17:56;;;;;;;12.87;6.43;;;;;;;-143.21;59.89;72746.47;5085085;28;20279;-81
2023/10/11 08:20:28;;;;;;;13.87;6.33;;;;;;;-143.21;59.08;72720.69;5086029;28;20337;-80
2023/10/11 08:22:57;;;;;;;12.70;6.27;;;;;;;-143.21;58.06;72694.91;5085426;28;20205;-80
2023/10/11 08:25:28;;;;;;;16.00;6.40;;;;;;;-143.21;57.33;72673.09;5086227;28;20204;-81
2023/10/11 08:28:12;;;;;;;14.30;6.60;;;;;;;-143.21;56.41;72659.19;5085371;28;20205;-81
2023/10/11 08:30:39;;;;;;;13.25;5.97;;;;;;;-143.21;55.38;72639.38;5083754;28;20201;-81
2023/10/11 08:33:08;;;;;;;16.00;6.07;;;;;;;-143.21;55.41;72629.44;5085835;28;20262;-81
2023/10/11 08:35:34;;;;;;;15.73;6.80;;;;;;;-143.21;55.06;72625.47;5085967;28;20667;-81
2023/10/11 08:38:04;;;;;;;17.27;5.93;;;;;;;-143.21;54.98;72601.69;5082034;28;20208;-81
2023/10/11 08:40:36;;;;;;;18.27;6.53;;;;;;;-143.21;54.48;72579.88;5075173;28;20293;-81
2023/10/11 08:43:04;;;;;;;16.48;6.50;;;;;;;-143.21;53.84;72558.06;5069148;28;20295;-81
2023/10/11 08:45:34;;;;;;;12.18;5.72;;;;;;;-143.21;53.25;72522.34;5072295;28;20201;-81
2023/10/11 08:48:01;;;;;;;16.33;6.82;;;;;;;-143.21;52.72;72488.63;5072212;28;20205;-81
2023/10/11 08:50:34;;;;;;;13.25;6.28;;;;;;;-143.21;52.04;72450.97;5072443;28;20691;-81
2023/10/11 08:53:02;;;;;;;9.20;6.10;;;;;;;-143.21;51.15;72419.22;5069110;28;20201;-80
2023/10/11 08:55:35;;;;;;;13.60;6.53;;;;;;;-143.21;50.02;72393.44;5069923;28;20273;-80
2023/10/11 08:58:31;;;;;;;9.40;5.60;;;;;;;-143.21;49.78;72377.56;5069130;28;20204;-82
2023/10/11 09:01:00;;;;;;;12.23;5.65;;;;;;;-143.21;49.08;72345.84;4996559;28;20305;-81
2023/10/11 09:03:31;;;;;;;15.43;5.80;;;;;;;-143.21;48.79;72318.09;5071158;28;20208;-82
2023/10/11 09:06:00;;;;;;;12.70;5.60;;;;;;;-143.21;47.97;72276.44;5070895;28;20198;-81
2023/10/11 09:08:31;;;;;;;15.82;5.72;;;;;;;-143.21;47.80;72244.72;5071523;28;20202;-80
2023/10/11 09:11:28;;;;;;;9.73;5.35;;;;;;;-143.21;46.92;72209.00;5071848;28;20567;-83
2023/10/11 09:14:10;;;;;;;10.15;5.95;;;;;;;-143.21;46.06;72171.34;5071792;28;20217;-82
2023/10/11 09:16:37;;;;;;;12.02;5.50;;;;;;;-143.21;45.24;72133.66;5071535;28;20227;-81
2023/10/11 09:19:11;;;;;;;15.07;6.10;;;;;;;-143.21;44.69;72115.81;5072077;28;20550;-82
2023/10/11 09:22:19;;;;;;;10.60;5.28;;;;;;;-143.21;44.04;72084.06;5071211;28;20243;-83
2023/10/11 09:24:47;;;;;;;10.93;5.22;;;;;;;-143.21;43.81;72046.41;5064493;28;20676;-80
2023/10/11 09:27:19;;;;;;;10.40;5.80;;;;;;;-143.21;43.32;72010.72;5069602;28;20207;-82
2023/10/11 09:29:48;;;;;;;13.05;6.65;;;;;;;-143.21;42.75;71982.94;5071225;28;20256;-81
2023/10/11 09:32:19;;;;;;;11.00;6.07;;;;;;;-143.21;41.92;71984.94;5071201;28;20694;-81
2023/10/11 09:34:46;;;;;;;12.98;5.55;;;;;;;-143.21;42.12;71941.31;5071173;28;20200;-81
2023/10/11 09:37:13;;;;;;;12.98;5.65;;;;;;;-143.21;41.37;71901.66;5071725;28;20201;-81
2023/10/11 09:39:42;;;;;;;11.93;5.50;;;;;;;-143.21;40.87;71863.97;5071003;28;20255;-81
2023/10/11 09:42:13;;;;;;;12.30;5.35;;;;;;;-143.21;40.34;71846.13;5070681;28;20209;-83
2023/10/11 09:44:43;;;;;;;8.85;5.47;;;;;;;-143.21;40.28;71869.91;5069838;28;20208;-81
2023/10/11 09:47:16;;;;;;;9.27;5.15;;;;;;;-143.21;40.38;71836.22;5069830;28;20197;-80
2023/10/11 09:49:44;;;;;;;9.65;5.63;;;;;;;-143.21;39.70;71808.44;5071218;28;20267;-81
2023/10/11 09:52:11;;;;;;;11.55;5.70;;;;;;;-143.21;39.37;71792.59;5069249;28;20211;-83
2023/10/11 09:54:40;;;;;;;7.57;5.25;;;;;;;-143.21;39.02;71772.75;5071247;28;20201;-83
2023/10/11 09:57:20;;;;;;;12.57;5.70;;;;;;;-143.21;38.50;71745.00;5075942;28;20263;-81
2023/10/11 09:59:59;;;;;;;8.25;5.20;;;;;;;-143.21;38.22;71727.16;5075735;28;20208;-82
2023/10/11 10:02:33;;;;;;;10.38;5.13;;;;;;;-143.21;38.46;71681.56;5070843;28;20578;-82
2023/10/11 10:05:04;;;;;;;7.63;4.80;;;;;;;-143.21;37.78;71633.97;5071243;28;20200;-82
2023/10/11 10:07:42;;;;;;;9.77;5.18;;;;;;;-143.21;36.75;71604.22;5068081;28;20201;-82
2023/10/11 10:10:12;;;;;;;13.27;4.90;;;;;;;-143.21;36.68;71580.44;5068105;28;20591;-82
2023/10/11 10:12:43;;;;;;;6.35;4.90;;;;;;;-143.21;36.82;71546.72;5070820;28;20201;-81
2023/10/11 10:15:14;;;;;;;11.23;5.85;;;;;;;-143.21;35.44;71495.19;5070647;28;20266;-81
2023/10/11 10:18:24;;;;;;;10.23;4.97;;;;;;;-143.21;34.80;71449.56;5070578;28;20205;-82
2023/10/11 10:21:03;;;;;;;19.33;7.28;;;;;;;-143.21;34.16;71407.94;5069110;28;20216;-83
2023/10/11 10:23:42;;;;;;;13.73;5.35;;;;;;;-143.21;34.43;71368.28;5065669;28;20197;-83
2023/10/11 10:26:26;;;;;;;6.85;4.93;;;;;;;-143.21;33.43;71344.50;5068415;28;20276;-84
2023/10/11 10:28:57;;;;;;;16.42;5.10;;;;;;;-143.21;33.56;71370.28;5068942;28;20232;-83
2023/10/11 10:31:25;;;;;;;8.85;4.88;;;;;;;-143.21;33.46;71354.41;5070895;28;20293;-79
2023/10/11 10:34:29;;;;;;;9.73;5.07;;;;;;;-143.21;33.44;71308.81;5069167;28;20343;-78
2023/10/11 10:36:59;;;;;;;6.10;4.78;;;;;;;-143.21;33.06;71281.06;5069051;28;20213;-78
2023/10/11 10:39:36;;;;;;;8.40;4.78;;;;;;;-143.21;32.03;71255.28;5069081;28;20198;-80
2023/10/11 10:42:15;;;;;;;9.23;5.20;;;;;;;-143.21;32.38;71221.56;5066618;28;20284;-77
2023/10/11 10:51:01;;;;;;;6.35;4.72;;;;;;;-143.21;31.44;71215.63;5068251;28;20225;-84
2023/10/11 10:53:42;;;;;;;10.05;4.20;;;;;;;-143.21;31.46;71273.13;5069288;28;20185;-83
2023/10/11 10:56:20;;;;;;;7.80;4.53;;;;;;;-143.21;32.19;71275.09;5068990;28;20246;-79
2023/10/11 10:58:46;;;;;;;7.15;4.10;;;;;;;-143.21;32.01;71298.91;5068889;28;20193;-80
2023/10/11 11:01:21;;;;;;;12.10;4.13;;;;;;;-143.21;32.11;71316.75;5068813;28;20198;-81
2023/10/11 11:04:10;;;;;;;5.18;4.40;;;;;;;-143.21;32.16;71304.84;5069196;28;20204;-81
2023/10/11 11:06:45;;;;;;;7.05;4.20;;;;;;;-143.21;32.14;71265.19;5069301;28;20194;-81
2023/10/11 11:09:25;;;;;;;13.25;3.72;;;;;;;-143.21;31.85;71229.50;5068426;28;20285;-81
2023/10/11 11:12:14;;;;;;;6.70;4.20;;;;;;;-143.21;31.30;71205.72;5068205;28;20591;-81
2023/10/11 11:15:13;;;;;;;9.02;4.05;;;;;;;-143.21;30.89;71164.09;5069001;28;20288;-82
2023/10/11 11:17:57;;;;;;;9.07;4.40;;;;;;;-143.21;30.73;71150.22;5061445;28;20212;-82
2023/10/11 11:20:32;;;;;;;5.22;4.07;;;;;;;-143.21;30.47;71088.75;5069539;28;20232;-81
2023/10/11 11:22:58;;;;;;;7.68;3.65;;;;;;;-143.21;29.83;71035.22;5068580;28;20189;-80
2023/10/11 11:25:28;;;;;;;8.68;3.85;;;;;;;-143.21;29.41;71049.09;5068863;28;20262;-80
2023/10/11 11:28:07;;;;;;;8.88;3.75;;;;;;;-143.21;29.83;71120.47;5068627;28;20209;-81
2023/10/11 11:30:37;;;;;;;4.20;3.67;;;;;;;-143.21;29.90;71090.72;5069308;28;20217;-80
2023/10/11 11:33:21;;;;;;;5.88;3.90;;;;;;;-143.21;29.67;71070.91;5069147;28;20200;-81
2023/10/11 11:35:52;;;;;;;5.78;3.97;;;;;;;-143.21;29.52;71098.66;5068809;28;20197;-81
2023/10/11 11:38:20;;;;;;;6.55;3.60;;;;;;;-143.21;29.87;71146.25;5069030;28;20193;-81
2023/10/11 11:40:48;;;;;;;6.00;3.70;;;;;;;-143.21;30.46;71174.00;5068052;28;20197;-80
2023/10/11 11:43:17;;;;;;;4.50;3.60;;;;;;;-143.21;30.26;71170.03;5069186;28;20257;-84
2023/10/11 11:45:45;;;;;;;9.05;3.40;;;;;;;-143.21;30.28;71170.03;5068823;28;20201;-81
2023/10/11 11:48:14;;;;;;;6.90;3.55;;;;;;;-143.21;30.26;71140.28;5068203;28;20206;-82
2023/10/11 11:50:41;;;;;;;5.78;3.28;;;;;;;-143.21;29.62;71090.72;5068619;28;20699;-83
2023/10/11 11:53:06;;;;;;;7.38;3.25;;;;;;;-143.21;29.29;71037.22;5068980;28;20586;-82
2023/10/11 11:55:35;;;;;;;7.05;3.30;;;;;;;-143.21;29.02;70993.59;5068473;28;20201;-82
2023/10/11 11:58:10;;;;;;;5.78;3.47;;;;;;;-143.21;28.61;70995.56;5064681;28;20622;-83
2023/10/11 12:00:59;;;;;;;7.07;3.75;;;;;;;-143.21;28.68;70989.63;5066257;28;20635;-82
2023/10/11 12:03:26;;;;;;;5.18;3.75;;;;;;;-143.21;28.48;70963.84;5069010;28;20205;-83